Nearby METAR Reports

 

KMTN - Baltimore/Martin, Maryland, USA
Distance from station: SSE 8mi, 13km
Updated: Sun, 25-Jan-2015 8:50pm EST
Overcast
Overcast
 Wind from calm
Wind: Calm
Temperature: 43°F , 6°C
Dew Point: 37°F , 3°C
Humidity: 81%
Barometer: 29.90 inHg , 1012.5 hPa
Clouds: Overcast
Visibility: 10 miles , 16 km
Cloud details: Overcast 4800 ft
2015/01/26 01:50 KMTN 260150Z 00000KT 10SM OVC048 06/03 A2990
KDMH - Baltimore/Dwntwn, Maryland, USA
Distance from station: SW 12mi, 19km
Updated: Sun, 25-Jan-2015 8:54pm EST

 
Temperature: 45°F , 7°C
Dew Point: 34°F , 1°C
Humidity: 66%
Barometer: 29.88 inHg , 1011.9 hPa
2015/01/26 01:54 KDMH 260154Z AUTO 07/01 A2988 RMK AO1 SLP118 T00670006
 
KBWI - Balto/Wash Intl, Maryland, USA
Distance from station: SSW 20mi, 33km
Updated: Sun, 25-Jan-2015 8:54pm EST
Overcast
Overcast
 Wind from E
Wind: E 6 mph , 9 km/h
Temperature: 43°F , 6°C
Wind Chill: 39°F , 4°C
Dew Point: 32°F , 0°C
Humidity: 66%
Barometer: 29.87 inHg , 1011.5 hPa
Clouds: Overcast
Visibility: 10 miles , 16 km
Cloud details: Overcast 4900 ft
2015/01/26 01:54 KBWI 260154Z 09005KT 10SM OVC049 06/00 A2987 RMK AO2 SLP116 T00560000
KDMW - Carroll Cnty, Maryland, USA
Distance from station: WNW 30mi, 48km
Updated: Sun, 25-Jan-2015 8:55pm EST
Rain, Overcast
Rain, Overcast
 Wind from calm
Wind: Calm
Temperature: 37°F , 3°C
Dew Point: 36°F , 2°C
Humidity: 93%
Barometer: 29.86 inHg , 1011.2 hPa
Summary: Rain
Clouds: Overcast
Visibility: 4 miles , 6 km
Cloud details: Overcast 4200 ft
2015/01/26 01:55 KDMW 260155Z AUTO 00000KT 4SM RA OVC042 03/02 A2986 RMK AO2
 
KNAK - Annapolis/Naval, Maryland, USA
Distance from station: S 30mi, 48km
Updated: Sun, 25-Jan-2015 8:54pm EST
Overcast
Overcast
 Wind from ESE
Wind: ESE 5 mph , 7 km/h
Temperature: 39°F , 4°C
Wind Chill: 35°F , 2°C
Dew Point: 34°F , 1°C
Humidity: 81%
Barometer: 29.88 inHg , 1011.9 hPa
Clouds: Overcast
Visibility: 10 miles , 16 km
Cloud details: Overcast 5500 ft
2015/01/26 01:54 KNAK 260154Z AUTO 11004KT 10SM OVC055 04/01 A2988 RMK AO2 SLP120 T00440006
KW29 - Stevensville, Maryland, USA
Distance from station: SSE 31mi, 50km
Updated: Sun, 25-Jan-2015 8:57pm EST

 Wind from SE
Wind: SE 6 mph , 9 km/h
Temperature: 43°F , 6°C
Wind Chill: 39°F , 4°C
Dew Point: 32°F , 0°C
Humidity: 66%
Barometer: 29.89 inHg , 1012.2 hPa
Visibility: 10 miles , 16 km
2015/01/26 01:57 KW29 260157Z AUTO 14005KT 10SM 06/00 A2989 RMK AO1
 
KCGS - College Park, Maryland, USA
Distance from station: SW 38mi, 61km
Updated: Sun, 25-Jan-2015 8:55pm EST
Overcast
Overcast
 Wind from calm
Wind: Calm
Temperature: 43°F , 6°C
Dew Point: 34°F , 1°C
Humidity: 71%
Barometer: 29.86 inHg , 1011.2 hPa
Clouds: Overcast
Visibility: 10 miles , 16 km
Cloud details: Overcast 5000 ft
2015/01/26 01:55 KCGS 260155Z AUTO 00000KT 10SM OVC050 06/01 A2986 RMK AO1
KGAI - Gaithersburg, Maryland, USA
Distance from station: WSW 40mi, 65km
Updated: Sun, 25-Jan-2015 9:15pm EST
Overcast
Overcast
 Wind from E
Wind: E 3 mph , 6 km/h
Temperature: 41°F , 5°C
Dew Point: 30°F , -1°C
Humidity: 66%
Barometer: 29.89 inHg , 1012.2 hPa
Clouds: Overcast
Visibility: 10 miles , 16 km
Cloud details: Overcast 4500 ft
2015/01/26 02:15 KGAI 260215Z 08003KT 10SM OVC045 05/M01 A2989 RMK AO1
 
KTHV - York, Pennsylvania, USA
Distance from station: NNW 40mi, 65km
Updated: Sun, 25-Jan-2015 9:12pm EST
Light rain, Mist, Overcast
Light rain, Mist, Overcast
 Wind from ENE
Wind: ENE 3 mph , 6 km/h
Temperature: 36°F , 2°C
Dew Point: 34°F , 1°C
Humidity: 93%
Barometer: 29.88 inHg , 1011.9 hPa
Summary: Light rain, Mist
Clouds: Overcast
Visibility: 4 miles , 6 km
Cloud details: Mostly cloudy 1300 ft
Overcast 1800 ft
2015/01/26 02:12 KTHV 260212Z AUTO 07003KT 4SM -RA BR BKN013 OVC018 02/01 A2988 RMK AO2 P0000 T00220011
KFDK - Frederick, Maryland, USA
Distance from station: W 47mi, 75km
Updated: Sun, 25-Jan-2015 8:55pm EST
Overcast
Overcast
 Wind from N
Wind: N 3 mph , 6 km/h
Temperature: 39°F , 4°C
Dew Point: 34°F , 1°C
Humidity: 81%
Barometer: 29.89 inHg , 1012.2 hPa
Clouds: Overcast
Visibility: 10 miles , 16 km
Cloud details: Overcast 4500 ft
2015/01/26 01:55 KFDK 260155Z AUTO 01003KT 10SM OVC045 04/01 A2989 RMK AO2
 
KESN - Easton/Newnam, Maryland, USA
Distance from station: SSE 48mi, 78km
Updated: Sun, 25-Jan-2015 8:53pm EST
Overcast
Overcast
 Wind from SSE
Wind: SSE 3 mph , 6 km/h
Temperature: 45°F , 7°C
Dew Point: 34°F , 1°C
Humidity: 66%
Barometer: 29.92 inHg , 1013.2 hPa
Clouds: Overcast
Visibility: 10 miles , 16 km
Cloud details: Overcast 5000 ft
2015/01/26 01:53 KESN 260153Z 15003KT 10SM OVC050 07/01 A2992
KDCA - Washington/Natl, Washington D.c., USA
Distance from station: SW 49mi, 79km
Updated: Sun, 25-Jan-2015 8:52pm EST
Overcast
Overcast
 Wind from calm
Wind: Calm
Temperature: 48°F , 9°C
Dew Point: 30°F , -1°C
Humidity: 50%
Barometer: 29.87 inHg , 1011.5 hPa
Clouds: Overcast
Visibility: 10 miles , 16 km
Cloud details: Overcast 5500 ft
2015/01/26 01:52 KDCA 260152Z 00000KT 10SM OVC055 09/M01 A2987 RMK AO2 SLP113 T00891006
 
KLNS - Lancaster, Pennsylvania, USA
Distance from station: N 49mi, 79km
Updated: Sun, 25-Jan-2015 9:05pm EST
Light rain, Mist, Overcast
Light rain, Mist, Overcast
 Wind from NE
Wind: NE 9 mph , 15 km/h
Temperature: 34°F , 1°C
Wind Chill: 27°F , -3°C
Dew Point: 32°F , 0°C
Humidity: 93%
Barometer: 29.90 inHg , 1012.5 hPa
Summary: Light rain, Mist
Clouds: Overcast
Visibility: 4 miles , 6 km
Cloud details: Mostly cloudy 1100 ft
Overcast 2800 ft
2015/01/26 02:05 KLNS 260205Z 05008KT 4SM -RA BR BKN011 OVC028 01/00 A2990 RMK AO2 P0000 T00110000
KILG - Wilmington, Delaware, USA
Distance from station: ENE 50mi, 81km
Updated: Sun, 25-Jan-2015 8:51pm EST
Overcast
Overcast
 Wind from NE
Wind: NE 7 mph , 11 km/h
Temperature: 41°F , 5°C
Wind Chill: 36°F , 2°C
Dew Point: 34°F , 1°C
Humidity: 76%
Barometer: 29.92 inHg , 1013.2 hPa
Clouds: Overcast
Visibility: 10 miles , 16 km
Cloud details: Overcast 5500 ft
2015/01/26 01:51 KILG 260151Z 05006KT 10SM OVC055 05/01 A2992 RMK AO2 SLP131 T00500006